Terminal Aerodrome Forecast
Issued by NWS Wilmington, NC

Home | Current Version | Previous Version | Text Only | Print | Product List | Glossary On
Versions: 1 2 3 4 5 6 7 8 9 10 11 12 13 14 15 16 17 18 19 20 21 22 23 24 25 26 27 28 29
533
FTUS42 KILM 241120
TAFILM
TAF
KILM 241120Z 2412/2512 29010KT P6SM OVC015
      TEMPO 2412/2414 BKN025 OVC040
     FM241400 29016G24KT P6SM SKC
     FM242300 28008KT P6SM SKC=

USA.gov is the U.S. government's official web portal to all federal, state and local government web resources and services.